sensor_id;sensor_type;location;lat;lon;timestamp;P1;durP1;ratioP1;P2;durP2;ratioP2
9657;SDS011;4867;48.112;11.622;2022-07-29T00:01:00;3.97;;;1.77;;
9657;SDS011;4867;48.112;11.622;2022-07-29T00:03:27;2.13;;;1.73;;
9657;SDS011;4867;48.112;11.622;2022-07-29T00:05:56;2.33;;;1.70;;
9657;SDS011;4867;48.112;11.622;2022-07-29T00:08:26;1.87;;;1.73;;
9657;SDS011;4867;48.112;11.622;2022-07-29T00:10:52;1.90;;;1.70;;
9657;SDS011;4867;48.112;11.622;2022-07-29T00:13:19;1.80;;;1.70;;
9657;SDS011;4867;48.112;11.622;2022-07-29T00:15:58;1.70;;;1.60;;
9657;SDS011;4867;48.112;11.622;2022-07-29T00:18:30;2.03;;;1.80;;
9657;SDS011;4867;48.112;11.622;2022-07-29T00:20:57;2.93;;;2.20;;
9657;SDS011;4867;48.112;11.622;2022-07-29T00:23:24;2.03;;;1.83;;
9657;SDS011;4867;48.112;11.622;2022-07-29T00:25:51;2.30;;;2.10;;
9657;SDS011;4867;48.112;11.622;2022-07-29T00:28:18;3.33;;;1.97;;
9657;SDS011;4867;48.112;11.622;2022-07-29T00:30:45;2.00;;;1.80;;
9657;SDS011;4867;48.112;11.622;2022-07-29T00:33:12;2.00;;;1.90;;
9657;SDS011;4867;48.112;11.622;2022-07-29T00:35:39;3.03;;;2.00;;
9657;SDS011;4867;48.112;11.622;2022-07-29T00:38:13;3.00;;;2.07;;
9657;SDS011;4867;48.112;11.622;2022-07-29T00:40:40;2.00;;;1.90;;
9657;SDS011;4867;48.112;11.622;2022-07-29T00:43:09;2.17;;;2.00;;
9657;SDS011;4867;48.112;11.622;2022-07-29T00:45:37;3.03;;;2.00;;
9657;SDS011;4867;48.112;11.622;2022-07-29T00:48:04;2.30;;;2.10;;
9657;SDS011;4867;48.112;11.622;2022-07-29T00:50:31;2.00;;;1.80;;
9657;SDS011;4867;48.112;11.622;2022-07-29T00:52:58;2.23;;;2.00;;
9657;SDS011;4867;48.112;11.622;2022-07-29T00:55:26;2.43;;;1.90;;
9657;SDS011;4867;48.112;11.622;2022-07-29T00:57:53;2.30;;;2.10;;
9657;SDS011;4867;48.112;11.622;2022-07-29T01:00:23;2.20;;;2.10;;
9657;SDS011;4867;48.112;11.622;2022-07-29T01:02:52;2.20;;;2.00;;
9657;SDS011;4867;48.112;11.622;2022-07-29T01:05:20;2.03;;;1.90;;
9657;SDS011;4867;48.112;11.622;2022-07-29T01:08:11;2.40;;;2.20;;
9657;SDS011;4867;48.112;11.622;2022-07-29T01:10:40;1.90;;;1.80;;
9657;SDS011;4867;48.112;11.622;2022-07-29T01:13:08;2.40;;;2.00;;
9657;SDS011;4867;48.112;11.622;2022-07-29T01:15:38;2.03;;;1.93;;
9657;SDS011;4867;48.112;11.622;2022-07-29T01:18:20;2.13;;;2.00;;
9657;SDS011;4867;48.112;11.622;2022-07-29T01:26:34;2.60;;;1.90;;
9657;SDS011;4867;48.112;11.622;2022-07-29T01:32:18;2.57;;;1.70;;
9657;SDS011;4867;48.112;11.622;2022-07-29T01:34:58;2.00;;;1.90;;
9657;SDS011;4867;48.112;11.622;2022-07-29T01:37:55;1.60;;;1.50;;
9657;SDS011;4867;48.112;11.622;2022-07-29T01:40:34;1.80;;;1.70;;
9657;SDS011;4867;48.112;11.622;2022-07-29T01:43:21;2.07;;;1.70;;
9657;SDS011;4867;48.112;11.622;2022-07-29T01:46:06;2.53;;;1.73;;
9657;SDS011;4867;48.112;11.622;2022-07-29T01:48:43;1.77;;;1.50;;
9657;SDS011;4867;48.112;11.622;2022-07-29T01:51:21;1.90;;;1.70;;
9657;SDS011;4867;48.112;11.622;2022-07-29T01:53:55;1.60;;;1.50;;
9657;SDS011;4867;48.112;11.622;2022-07-29T01:56:32;1.70;;;1.60;;
9657;SDS011;4867;48.112;11.622;2022-07-29T01:59:04;1.70;;;1.60;;
9657;SDS011;4867;48.112;11.622;2022-07-29T02:01:36;1.60;;;1.50;;
9657;SDS011;4867;48.112;11.622;2022-07-29T02:04:06;1.50;;;1.40;;
9657;SDS011;4867;48.112;11.622;2022-07-29T02:06:37;1.87;;;1.43;;
9657;SDS011;4867;48.112;11.622;2022-07-29T02:09:07;1.57;;;1.43;;
9657;SDS011;4867;48.112;11.622;2022-07-29T02:11:37;1.60;;;1.50;;
9657;SDS011;4867;48.112;11.622;2022-07-29T02:14:05;1.70;;;1.60;;
9657;SDS011;4867;48.112;11.622;2022-07-29T02:16:35;2.60;;;1.53;;
9657;SDS011;4867;48.112;11.622;2022-07-29T02:19:05;1.60;;;1.50;;
9657;SDS011;4867;48.112;11.622;2022-07-29T02:21:34;2.70;;;1.50;;
9657;SDS011;4867;48.112;11.622;2022-07-29T02:24:06;3.30;;;1.53;;
9657;SDS011;4867;48.112;11.622;2022-07-29T02:26:39;1.87;;;1.67;;
9657;SDS011;4867;48.112;11.622;2022-07-29T02:29:07;2.13;;;1.40;;
9657;SDS011;4867;48.112;11.622;2022-07-29T02:31:35;1.57;;;1.47;;
9657;SDS011;4867;48.112;11.622;2022-07-29T02:34:05;1.90;;;1.80;;
9657;SDS011;4867;48.112;11.622;2022-07-29T02:36:33;2.87;;;1.50;;
9657;SDS011;4867;48.112;11.622;2022-07-29T02:39:01;1.60;;;1.50;;
9657;SDS011;4867;48.112;11.622;2022-07-29T02:44:30;1.50;;;1.40;;
9657;SDS011;4867;48.112;11.622;2022-07-29T02:52:10;2.03;;;1.40;;
9657;SDS011;4867;48.112;11.622;2022-07-29T02:57:31;1.77;;;1.53;;
9657;SDS011;4867;48.112;11.622;2022-07-29T03:00:20;2.63;;;1.63;;
9657;SDS011;4867;48.112;11.622;2022-07-29T03:02:50;1.73;;;1.63;;
9657;SDS011;4867;48.112;11.622;2022-07-29T03:05:20;1.60;;;1.50;;
9657;SDS011;4867;48.112;11.622;2022-07-29T03:07:52;2.23;;;1.70;;
9657;SDS011;4867;48.112;11.622;2022-07-29T03:10:21;2.07;;;1.70;;
9657;SDS011;4867;48.112;11.622;2022-07-29T03:12:51;1.70;;;1.60;;
9657;SDS011;4867;48.112;11.622;2022-07-29T03:15:19;3.10;;;1.80;;
9657;SDS011;4867;48.112;11.622;2022-07-29T03:17:49;1.80;;;1.50;;
9657;SDS011;4867;48.112;11.622;2022-07-29T03:20:17;1.70;;;1.60;;
9657;SDS011;4867;48.112;11.622;2022-07-29T03:22:44;1.83;;;1.73;;
9657;SDS011;4867;48.112;11.622;2022-07-29T03:25:16;1.77;;;1.67;;
9657;SDS011;4867;48.112;11.622;2022-07-29T03:27:45;1.93;;;1.73;;
9657;SDS011;4867;48.112;11.622;2022-07-29T03:30:13;2.70;;;1.80;;
9657;SDS011;4867;48.112;11.622;2022-07-29T03:32:48;1.80;;;1.70;;
9657;SDS011;4867;48.112;11.622;2022-07-29T03:35:17;2.00;;;1.80;;
9657;SDS011;4867;48.112;11.622;2022-07-29T03:37:48;2.20;;;1.73;;
9657;SDS011;4867;48.112;11.622;2022-07-29T03:40:18;1.80;;;1.70;;
9657;SDS011;4867;48.112;11.622;2022-07-29T03:42:49;2.10;;;1.90;;
9657;SDS011;4867;48.112;11.622;2022-07-29T03:45:20;2.57;;;1.90;;
9657;SDS011;4867;48.112;11.622;2022-07-29T03:47:48;1.97;;;1.80;;
9657;SDS011;4867;48.112;11.622;2022-07-29T03:50:26;1.90;;;1.80;;
9657;SDS011;4867;48.112;11.622;2022-07-29T03:52:55;2.67;;;2.03;;
9657;SDS011;4867;48.112;11.622;2022-07-29T03:55:22;2.80;;;1.90;;
9657;SDS011;4867;48.112;11.622;2022-07-29T03:57:49;2.43;;;1.90;;
9657;SDS011;4867;48.112;11.622;2022-07-29T04:00:17;2.50;;;2.30;;
9657;SDS011;4867;48.112;11.622;2022-07-29T04:02:45;5.47;;;2.20;;
9657;SDS011;4867;48.112;11.622;2022-07-29T04:05:15;2.57;;;2.17;;
9657;SDS011;4867;48.112;11.622;2022-07-29T04:07:51;2.30;;;2.03;;
9657;SDS011;4867;48.112;11.622;2022-07-29T04:10:18;2.30;;;2.10;;
9657;SDS011;4867;48.112;11.622;2022-07-29T04:12:57;3.53;;;2.10;;
9657;SDS011;4867;48.112;11.622;2022-07-29T04:15:25;2.20;;;2.00;;
9657;SDS011;4867;48.112;11.622;2022-07-29T04:17:57;2.20;;;2.00;;
9657;SDS011;4867;48.112;11.622;2022-07-29T04:20:25;2.63;;;2.10;;
9657;SDS011;4867;48.112;11.622;2022-07-29T04:22:52;2.37;;;1.97;;
9657;SDS011;4867;48.112;11.622;2022-07-29T04:25:19;1.93;;;1.80;;
9657;SDS011;4867;48.112;11.622;2022-07-29T04:27:46;2.97;;;2.03;;
9657;SDS011;4867;48.112;11.622;2022-07-29T04:30:28;3.20;;;2.07;;
9657;SDS011;4867;48.112;11.622;2022-07-29T04:32:56;3.13;;;2.30;;
9657;SDS011;4867;48.112;11.622;2022-07-29T04:35:23;2.27;;;2.07;;
9657;SDS011;4867;48.112;11.622;2022-07-29T04:37:49;3.20;;;2.10;;
9657;SDS011;4867;48.112;11.622;2022-07-29T04:40:16;2.27;;;1.90;;
9657;SDS011;4867;48.112;11.622;2022-07-29T04:42:43;2.37;;;1.93;;
9657;SDS011;4867;48.112;11.622;2022-07-29T04:45:13;2.00;;;1.90;;
9657;SDS011;4867;48.112;11.622;2022-07-29T04:47:41;2.40;;;2.20;;
9657;SDS011;4867;48.112;11.622;2022-07-29T04:50:08;2.27;;;2.10;;
9657;SDS011;4867;48.112;11.622;2022-07-29T04:52:35;2.37;;;2.17;;
9657;SDS011;4867;48.112;11.622;2022-07-29T04:55:03;2.20;;;2.10;;
9657;SDS011;4867;48.112;11.622;2022-07-29T04:57:31;2.40;;;2.20;;
9657;SDS011;4867;48.112;11.622;2022-07-29T04:59:58;2.33;;;2.13;;
9657;SDS011;4867;48.112;11.622;2022-07-29T05:02:25;2.60;;;2.40;;
9657;SDS011;4867;48.112;11.622;2022-07-29T05:04:52;2.40;;;2.20;;
9657;SDS011;4867;48.112;11.622;2022-07-29T05:07:19;2.60;;;2.07;;
9657;SDS011;4867;48.112;11.622;2022-07-29T05:09:46;2.63;;;2.10;;
9657;SDS011;4867;48.112;11.622;2022-07-29T05:12:13;2.67;;;2.00;;
9657;SDS011;4867;48.112;11.622;2022-07-29T05:14:40;2.30;;;2.00;;
9657;SDS011;4867;48.112;11.622;2022-07-29T05:17:07;2.17;;;1.97;;
9657;SDS011;4867;48.112;11.622;2022-07-29T05:19:34;2.70;;;2.10;;
9657;SDS011;4867;48.112;11.622;2022-07-29T05:22:05;2.17;;;1.97;;
9657;SDS011;4867;48.112;11.622;2022-07-29T05:24:32;2.10;;;1.90;;
9657;SDS011;4867;48.112;11.622;2022-07-29T05:26:58;2.43;;;2.10;;
9657;SDS011;4867;48.112;11.622;2022-07-29T05:29:25;2.43;;;2.00;;
9657;SDS011;4867;48.112;11.622;2022-07-29T05:32:11;2.20;;;2.00;;
9657;SDS011;4867;48.112;11.622;2022-07-29T05:34:39;2.17;;;1.97;;
9657;SDS011;4867;48.112;11.622;2022-07-29T05:37:17;4.63;;;2.07;;
9657;SDS011;4867;48.112;11.622;2022-07-29T05:39:45;2.63;;;2.20;;
9657;SDS011;4867;48.112;11.622;2022-07-29T05:42:22;2.40;;;2.07;;
9657;SDS011;4867;48.112;11.622;2022-07-29T05:44:49;2.10;;;2.00;;
9657;SDS011;4867;48.112;11.622;2022-07-29T05:47:16;2.10;;;1.90;;
9657;SDS011;4867;48.112;11.622;2022-07-29T05:49:43;2.20;;;2.10;;
9657;SDS011;4867;48.112;11.622;2022-07-29T05:52:10;2.03;;;1.90;;
9657;SDS011;4867;48.112;11.622;2022-07-29T05:54:37;2.30;;;2.10;;
9657;SDS011;4867;48.112;11.622;2022-07-29T05:57:04;2.50;;;2.10;;
9657;SDS011;4867;48.112;11.622;2022-07-29T05:59:34;3.90;;;2.30;;
9657;SDS011;4867;48.112;11.622;2022-07-29T06:02:02;4.33;;;2.20;;
9657;SDS011;4867;48.112;11.622;2022-07-29T06:04:31;3.43;;;2.17;;
9657;SDS011;4867;48.112;11.622;2022-07-29T06:06:59;3.20;;;2.40;;
9657;SDS011;4867;48.112;11.622;2022-07-29T06:09:26;3.17;;;2.10;;
9657;SDS011;4867;48.112;11.622;2022-07-29T06:11:54;4.47;;;2.17;;
9657;SDS011;4867;48.112;11.622;2022-07-29T06:14:21;3.27;;;2.30;;
9657;SDS011;4867;48.112;11.622;2022-07-29T06:16:48;2.90;;;2.00;;
9657;SDS011;4867;48.112;11.622;2022-07-29T06:19:15;3.93;;;2.20;;
9657;SDS011;4867;48.112;11.622;2022-07-29T06:21:42;2.10;;;1.97;;
9657;SDS011;4867;48.112;11.622;2022-07-29T06:24:13;2.60;;;2.40;;
9657;SDS011;4867;48.112;11.622;2022-07-29T06:26:42;2.37;;;2.17;;
9657;SDS011;4867;48.112;11.622;2022-07-29T06:29:10;2.97;;;2.30;;
9657;SDS011;4867;48.112;11.622;2022-07-29T06:31:37;3.80;;;2.10;;
9657;SDS011;4867;48.112;11.622;2022-07-29T06:34:04;2.50;;;2.00;;
9657;SDS011;4867;48.112;11.622;2022-07-29T06:36:33;2.20;;;1.97;;
9657;SDS011;4867;48.112;11.622;2022-07-29T06:39:06;2.17;;;2.03;;
9657;SDS011;4867;48.112;11.622;2022-07-29T06:41:34;3.10;;;1.97;;
9657;SDS011;4867;48.112;11.622;2022-07-29T06:44:07;2.00;;;1.90;;
9657;SDS011;4867;48.112;11.622;2022-07-29T06:46:34;2.20;;;2.00;;
9657;SDS011;4867;48.112;11.622;2022-07-29T06:49:03;2.53;;;2.30;;
9657;SDS011;4867;48.112;11.622;2022-07-29T06:51:30;2.03;;;1.93;;
9657;SDS011;4867;48.112;11.622;2022-07-29T06:53:57;2.47;;;2.00;;
9657;SDS011;4867;48.112;11.622;2022-07-29T06:56:32;3.30;;;2.07;;
9657;SDS011;4867;48.112;11.622;2022-07-29T06:59:05;2.40;;;2.20;;
9657;SDS011;4867;48.112;11.622;2022-07-29T07:01:33;2.20;;;2.00;;
9657;SDS011;4867;48.112;11.622;2022-07-29T07:04:01;3.93;;;2.17;;
9657;SDS011;4867;48.112;11.622;2022-07-29T07:06:28;3.77;;;2.00;;
9657;SDS011;4867;48.112;11.622;2022-07-29T07:08:55;3.37;;;2.13;;
9657;SDS011;4867;48.112;11.622;2022-07-29T07:11:22;2.63;;;2.13;;
9657;SDS011;4867;48.112;11.622;2022-07-29T07:13:50;3.90;;;2.10;;
9657;SDS011;4867;48.112;11.622;2022-07-29T07:16:18;2.63;;;2.43;;
9657;SDS011;4867;48.112;11.622;2022-07-29T07:18:44;2.73;;;2.10;;
9657;SDS011;4867;48.112;11.622;2022-07-29T07:21:11;2.10;;;2.00;;
9657;SDS011;4867;48.112;11.622;2022-07-29T07:23:44;3.57;;;2.30;;
9657;SDS011;4867;48.112;11.622;2022-07-29T07:26:12;3.40;;;2.20;;
9657;SDS011;4867;48.112;11.622;2022-07-29T07:28:39;2.50;;;2.30;;
9657;SDS011;4867;48.112;11.622;2022-07-29T07:31:06;2.60;;;2.40;;
9657;SDS011;4867;48.112;11.622;2022-07-29T07:33:32;2.40;;;2.20;;
9657;SDS011;4867;48.112;11.622;2022-07-29T07:35:59;2.30;;;2.10;;
9657;SDS011;4867;48.112;11.622;2022-07-29T07:38:26;2.50;;;2.30;;
9657;SDS011;4867;48.112;11.622;2022-07-29T07:40:53;2.73;;;2.30;;
9657;SDS011;4867;48.112;11.622;2022-07-29T07:43:20;5.03;;;4.53;;
9657;SDS011;4867;48.112;11.622;2022-07-29T07:45:47;2.40;;;2.20;;
9657;SDS011;4867;48.112;11.622;2022-07-29T07:48:14;2.30;;;2.10;;
9657;SDS011;4867;48.112;11.622;2022-07-29T07:50:41;3.20;;;2.20;;
9657;SDS011;4867;48.112;11.622;2022-07-29T07:53:10;2.47;;;2.10;;
9657;SDS011;4867;48.112;11.622;2022-07-29T07:55:40;2.80;;;2.20;;
9657;SDS011;4867;48.112;11.622;2022-07-29T07:58:28;2.60;;;2.40;;
9657;SDS011;4867;48.112;11.622;2022-07-29T08:00:55;2.10;;;1.90;;
9657;SDS011;4867;48.112;11.622;2022-07-29T08:03:22;5.73;;;2.27;;
9657;SDS011;4867;48.112;11.622;2022-07-29T08:05:49;2.50;;;2.30;;
9657;SDS011;4867;48.112;11.622;2022-07-29T08:08:17;2.50;;;2.30;;
9657;SDS011;4867;48.112;11.622;2022-07-29T08:10:44;2.40;;;2.20;;
9657;SDS011;4867;48.112;11.622;2022-07-29T08:13:30;4.03;;;2.07;;
9657;SDS011;4867;48.112;11.622;2022-07-29T08:15:58;2.23;;;2.03;;
9657;SDS011;4867;48.112;11.622;2022-07-29T08:18:38;5.17;;;2.13;;
9657;SDS011;4867;48.112;11.622;2022-07-29T08:21:06;2.23;;;2.03;;
9657;SDS011;4867;48.112;11.622;2022-07-29T08:23:34;2.60;;;2.20;;
9657;SDS011;4867;48.112;11.622;2022-07-29T08:26:18;2.27;;;2.00;;
9657;SDS011;4867;48.112;11.622;2022-07-29T08:28:46;2.30;;;1.90;;
9657;SDS011;4867;48.112;11.622;2022-07-29T08:31:16;3.22;;;2.08;;
9657;SDS011;4867;48.112;11.622;2022-07-29T08:33:43;2.40;;;2.20;;
9657;SDS011;4867;48.112;11.622;2022-07-29T08:36:10;3.75;;;2.38;;
9657;SDS011;4867;48.112;11.622;2022-07-29T08:38:38;2.53;;;2.33;;
9657;SDS011;4867;48.112;11.622;2022-07-29T08:41:05;2.60;;;2.35;;
9657;SDS011;4867;48.112;11.622;2022-07-29T08:43:32;2.75;;;2.20;;
9657;SDS011;4867;48.112;11.622;2022-07-29T08:46:01;2.60;;;2.40;;
9657;SDS011;4867;48.112;11.622;2022-07-29T08:48:28;3.05;;;2.40;;
9657;SDS011;4867;48.112;11.622;2022-07-29T08:50:55;3.10;;;2.30;;
9657;SDS011;4867;48.112;11.622;2022-07-29T08:53:24;2.58;;;2.38;;
9657;SDS011;4867;48.112;11.622;2022-07-29T08:55:53;2.65;;;2.45;;
9657;SDS011;4867;48.112;11.622;2022-07-29T08:58:21;3.70;;;2.42;;
9657;SDS011;4867;48.112;11.622;2022-07-29T09:00:54;2.72;;;2.40;;
9657;SDS011;4867;48.112;11.622;2022-07-29T09:03:24;2.95;;;2.60;;
9657;SDS011;4867;48.112;11.622;2022-07-29T09:05:53;2.80;;;2.60;;
9657;SDS011;4867;48.112;11.622;2022-07-29T09:08:20;2.60;;;2.40;;
9657;SDS011;4867;48.112;11.622;2022-07-29T09:10:47;3.70;;;2.60;;
9657;SDS011;4867;48.112;11.622;2022-07-29T09:13:16;2.90;;;2.70;;
9657;SDS011;4867;48.112;11.622;2022-07-29T09:15:44;4.18;;;2.65;;
9657;SDS011;4867;48.112;11.622;2022-07-29T09:18:11;3.28;;;2.65;;
9657;SDS011;4867;48.112;11.622;2022-07-29T09:20:56;2.83;;;2.53;;
9657;SDS011;4867;48.112;11.622;2022-07-29T09:23:58;3.22;;;2.90;;
9657;SDS011;4867;48.112;11.622;2022-07-29T09:26:29;4.28;;;2.63;;
9657;SDS011;4867;48.112;11.622;2022-07-29T09:28:58;3.10;;;2.80;;
9657;SDS011;4867;48.112;11.622;2022-07-29T09:31:32;3.67;;;2.80;;
9657;SDS011;4867;48.112;11.622;2022-07-29T09:34:01;5.35;;;3.65;;
9657;SDS011;4867;48.112;11.622;2022-07-29T09:36:28;5.47;;;2.75;;
9657;SDS011;4867;48.112;11.622;2022-07-29T09:39:02;3.33;;;2.80;;
9657;SDS011;4867;48.112;11.622;2022-07-29T09:41:29;2.90;;;2.70;;
9657;SDS011;4867;48.112;11.622;2022-07-29T09:44:09;3.03;;;2.80;;
9657;SDS011;4867;48.112;11.622;2022-07-29T09:46:36;4.18;;;3.15;;
9657;SDS011;4867;48.112;11.622;2022-07-29T09:49:11;3.70;;;2.70;;
9657;SDS011;4867;48.112;11.622;2022-07-29T09:51:39;5.85;;;2.83;;
9657;SDS011;4867;48.112;11.622;2022-07-29T09:57:03;3.58;;;2.80;;
9657;SDS011;4867;48.112;11.622;2022-07-29T09:59:38;3.05;;;2.85;;
9657;SDS011;4867;48.112;11.622;2022-07-29T10:02:15;4.20;;;2.80;;
9657;SDS011;4867;48.112;11.622;2022-07-29T10:04:49;4.10;;;3.10;;
9657;SDS011;4867;48.112;11.622;2022-07-29T10:07:16;5.18;;;2.95;;
9657;SDS011;4867;48.112;11.622;2022-07-29T10:09:49;4.57;;;2.80;;
9657;SDS011;4867;48.112;11.622;2022-07-29T10:12:23;4.95;;;2.80;;
9657;SDS011;4867;48.112;11.622;2022-07-29T10:14:50;3.20;;;3.00;;
9657;SDS011;4867;48.112;11.622;2022-07-29T10:17:18;3.25;;;2.95;;
9657;SDS011;4867;48.112;11.622;2022-07-29T10:19:45;3.65;;;3.00;;
9657;SDS011;4867;48.112;11.622;2022-07-29T10:22:13;3.72;;;3.17;;
9657;SDS011;4867;48.112;11.622;2022-07-29T10:24:40;3.83;;;3.17;;
9657;SDS011;4867;48.112;11.622;2022-07-29T10:27:07;4.40;;;3.15;;
9657;SDS011;4867;48.112;11.622;2022-07-29T10:29:34;3.83;;;2.97;;
9657;SDS011;4867;48.112;11.622;2022-07-29T10:35:08;3.30;;;3.10;;
9657;SDS011;4867;48.112;11.622;2022-07-29T10:40:49;4.90;;;3.47;;
9657;SDS011;4867;48.112;11.622;2022-07-29T10:43:46;3.92;;;3.47;;
9657;SDS011;4867;48.112;11.622;2022-07-29T10:46:16;3.45;;;3.15;;
9657;SDS011;4867;48.112;11.622;2022-07-29T10:49:03;3.53;;;2.88;;
9657;SDS011;4867;48.112;11.622;2022-07-29T10:59:42;3.40;;;3.10;;
9657;SDS011;4867;48.112;11.622;2022-07-29T11:07:39;4.28;;;3.15;;
9657;SDS011;4867;48.112;11.622;2022-07-29T11:10:27;4.22;;;3.33;;
9657;SDS011;4867;48.112;11.622;2022-07-29T11:12:57;4.07;;;3.42;;
9657;SDS011;4867;48.112;11.622;2022-07-29T11:15:24;5.50;;;3.33;;
9657;SDS011;4867;48.112;11.622;2022-07-29T11:31:41;32.00;;;4.63;;
9657;SDS011;4867;48.112;11.622;2022-07-29T11:48:00;5.18;;;3.10;;
9657;SDS011;4867;48.112;11.622;2022-07-29T11:50:47;5.80;;;2.90;;
9657;SDS011;4867;48.112;11.622;2022-07-29T11:53:14;3.08;;;2.60;;
9657;SDS011;4867;48.112;11.622;2022-07-29T11:55:42;3.80;;;3.30;;
9657;SDS011;4867;48.112;11.622;2022-07-29T11:58:21;7.45;;;4.15;;
9657;SDS011;4867;48.112;11.622;2022-07-29T12:00:51;4.88;;;3.13;;
9657;SDS011;4867;48.112;11.622;2022-07-29T12:03:25;4.10;;;2.97;;
9657;SDS011;4867;48.112;11.622;2022-07-29T12:06:01;4.07;;;2.97;;
9657;SDS011;4867;48.112;11.622;2022-07-29T12:08:38;6.88;;;3.20;;
9657;SDS011;4867;48.112;11.622;2022-07-29T12:11:14;5.95;;;3.10;;
9657;SDS011;4867;48.112;11.622;2022-07-29T12:13:45;3.67;;;3.03;;
9657;SDS011;4867;48.112;11.622;2022-07-29T12:16:14;5.00;;;2.88;;
9657;SDS011;4867;48.112;11.622;2022-07-29T12:19:01;4.65;;;3.03;;
9657;SDS011;4867;48.112;11.622;2022-07-29T12:21:43;6.18;;;2.90;;
9657;SDS011;4867;48.112;11.622;2022-07-29T12:24:24;3.42;;;3.13;;
9657;SDS011;4867;48.112;11.622;2022-07-29T12:26:56;4.88;;;3.33;;
9657;SDS011;4867;48.112;11.622;2022-07-29T12:29:25;3.53;;;3.10;;
9657;SDS011;4867;48.112;11.622;2022-07-29T12:32:01;3.03;;;2.75;;
9657;SDS011;4867;48.112;11.622;2022-07-29T12:34:31;3.53;;;3.28;;
9657;SDS011;4867;48.112;11.622;2022-07-29T12:36:58;3.53;;;2.90;;
9657;SDS011;4867;48.112;11.622;2022-07-29T12:39:25;3.25;;;2.95;;
9657;SDS011;4867;48.112;11.622;2022-07-29T12:41:54;4.45;;;3.03;;
9657;SDS011;4867;48.112;11.622;2022-07-29T12:44:49;5.20;;;2.78;;
9657;SDS011;4867;48.112;11.622;2022-07-29T12:47:17;2.95;;;2.67;;
9657;SDS011;4867;48.112;11.622;2022-07-29T12:49:46;4.88;;;2.90;;
9657;SDS011;4867;48.112;11.622;2022-07-29T12:52:23;2.97;;;2.75;;
9657;SDS011;4867;48.112;11.622;2022-07-29T12:54:53;2.95;;;2.75;;
9657;SDS011;4867;48.112;11.622;2022-07-29T12:57:21;4.10;;;2.63;;
9657;SDS011;4867;48.112;11.622;2022-07-29T13:00:07;3.05;;;2.75;;
9657;SDS011;4867;48.112;11.622;2022-07-29T13:02:37;4.53;;;3.10;;
9657;SDS011;4867;48.112;11.622;2022-07-29T13:05:06;3.42;;;3.00;;
9657;SDS011;4867;48.112;11.622;2022-07-29T13:07:34;3.28;;;3.00;;
9657;SDS011;4867;48.112;11.622;2022-07-29T13:10:20;3.83;;;3.15;;
9657;SDS011;4867;48.112;11.622;2022-07-29T13:15:45;4.82;;;3.35;;
9657;SDS011;4867;48.112;11.622;2022-07-29T13:18:31;3.65;;;3.35;;
9657;SDS011;4867;48.112;11.622;2022-07-29T13:21:12;5.40;;;3.30;;
9657;SDS011;4867;48.112;11.622;2022-07-29T13:23:41;4.97;;;3.00;;
9657;SDS011;4867;48.112;11.622;2022-07-29T13:26:09;3.92;;;3.28;;
9657;SDS011;4867;48.112;11.622;2022-07-29T13:28:37;6.03;;;3.30;;
9657;SDS011;4867;48.112;11.622;2022-07-29T13:31:05;3.45;;;3.13;;
9657;SDS011;4867;48.112;11.622;2022-07-29T13:33:32;4.20;;;3.30;;
9657;SDS011;4867;48.112;11.622;2022-07-29T13:35:58;5.38;;;3.50;;
9657;SDS011;4867;48.112;11.622;2022-07-29T13:38:25;5.00;;;3.10;;
9657;SDS011;4867;48.112;11.622;2022-07-29T13:40:56;4.88;;;3.00;;
9657;SDS011;4867;48.112;11.622;2022-07-29T13:43:23;5.22;;;3.20;;
9657;SDS011;4867;48.112;11.622;2022-07-29T13:45:50;5.75;;;3.25;;
9657;SDS011;4867;48.112;11.622;2022-07-29T13:48:18;5.35;;;3.00;;
9657;SDS011;4867;48.112;11.622;2022-07-29T13:50:45;4.10;;;3.28;;
9657;SDS011;4867;48.112;11.622;2022-07-29T13:53:12;5.03;;;3.00;;
9657;SDS011;4867;48.112;11.622;2022-07-29T13:55:43;5.15;;;3.20;;
9657;SDS011;4867;48.112;11.622;2022-07-29T13:58:12;3.42;;;3.13;;
9657;SDS011;4867;48.112;11.622;2022-07-29T14:00:39;3.53;;;3.10;;
9657;SDS011;4867;48.112;11.622;2022-07-29T14:03:06;3.63;;;3.13;;
9657;SDS011;4867;48.112;11.622;2022-07-29T14:05:32;5.75;;;3.17;;
9657;SDS011;4867;48.112;11.622;2022-07-29T14:07:59;4.93;;;3.38;;
9657;SDS011;4867;48.112;11.622;2022-07-29T14:10:26;4.20;;;3.17;;
9657;SDS011;4867;48.112;11.622;2022-07-29T14:12:53;4.63;;;3.08;;
9657;SDS011;4867;48.112;11.622;2022-07-29T14:15:20;5.05;;;3.40;;
9657;SDS011;4867;48.112;11.622;2022-07-29T14:17:47;3.70;;;3.30;;
9657;SDS011;4867;48.112;11.622;2022-07-29T14:20:14;5.60;;;3.30;;
9657;SDS011;4867;48.112;11.622;2022-07-29T14:22:42;3.90;;;3.40;;
9657;SDS011;4867;48.112;11.622;2022-07-29T14:25:10;3.35;;;3.05;;
9657;SDS011;4867;48.112;11.622;2022-07-29T14:27:40;5.22;;;3.20;;
9657;SDS011;4867;48.112;11.622;2022-07-29T14:30:09;4.45;;;3.28;;
9657;SDS011;4867;48.112;11.622;2022-07-29T14:32:36;4.85;;;3.35;;
9657;SDS011;4867;48.112;11.622;2022-07-29T14:35:04;3.85;;;3.22;;
9657;SDS011;4867;48.112;11.622;2022-07-29T14:37:31;4.25;;;3.33;;
9657;SDS011;4867;48.112;11.622;2022-07-29T14:40:06;4.93;;;3.10;;
9657;SDS011;4867;48.112;11.622;2022-07-29T14:42:34;3.60;;;2.78;;
9657;SDS011;4867;48.112;11.622;2022-07-29T14:45:02;3.67;;;3.20;;
9657;SDS011;4867;48.112;11.622;2022-07-29T14:47:31;3.30;;;3.00;;
9657;SDS011;4867;48.112;11.622;2022-07-29T14:49:58;6.30;;;3.10;;
9657;SDS011;4867;48.112;11.622;2022-07-29T14:52:25;3.17;;;2.80;;
9657;SDS011;4867;48.112;11.622;2022-07-29T14:54:53;3.72;;;2.95;;
9657;SDS011;4867;48.112;11.622;2022-07-29T14:57:19;4.00;;;2.83;;
9657;SDS011;4867;48.112;11.622;2022-07-29T14:59:46;2.92;;;2.72;;
9657;SDS011;4867;48.112;11.622;2022-07-29T15:02:13;4.50;;;2.85;;
9657;SDS011;4867;48.112;11.622;2022-07-29T15:04:40;3.97;;;2.83;;
9657;SDS011;4867;48.112;11.622;2022-07-29T15:07:06;3.15;;;2.95;;
9657;SDS011;4867;48.112;11.622;2022-07-29T15:09:34;3.17;;;2.75;;
9657;SDS011;4867;48.112;11.622;2022-07-29T15:12:14;5.00;;;2.97;;
9657;SDS011;4867;48.112;11.622;2022-07-29T15:14:41;3.50;;;2.80;;
9657;SDS011;4867;48.112;11.622;2022-07-29T15:17:08;2.88;;;2.67;;
9657;SDS011;4867;48.112;11.622;2022-07-29T15:19:35;3.40;;;3.10;;
9657;SDS011;4867;48.112;11.622;2022-07-29T15:22:02;3.08;;;2.78;;
9657;SDS011;4867;48.112;11.622;2022-07-29T15:24:31;4.22;;;2.80;;
9657;SDS011;4867;48.112;11.622;2022-07-29T15:26:58;3.67;;;2.70;;
9657;SDS011;4867;48.112;11.622;2022-07-29T15:29:25;3.00;;;2.72;;
9657;SDS011;4867;48.112;11.622;2022-07-29T15:31:52;3.45;;;3.15;;
9657;SDS011;4867;48.112;11.622;2022-07-29T15:34:19;6.55;;;3.10;;
9657;SDS011;4867;48.112;11.622;2022-07-29T15:36:47;5.22;;;3.03;;
9657;SDS011;4867;48.112;11.622;2022-07-29T15:39:18;5.17;;;3.10;;
9657;SDS011;4867;48.112;11.622;2022-07-29T15:41:46;3.35;;;3.05;;
9657;SDS011;4867;48.112;11.622;2022-07-29T15:44:13;3.97;;;3.22;;
9657;SDS011;4867;48.112;11.622;2022-07-29T15:46:40;3.72;;;2.97;;
9657;SDS011;4867;48.112;11.622;2022-07-29T15:49:26;6.13;;;3.40;;
9657;SDS011;4867;48.112;11.622;2022-07-29T15:52:18;3.78;;;3.40;;
9657;SDS011;4867;48.112;11.622;2022-07-29T15:54:51;3.70;;;3.40;;
9657;SDS011;4867;48.112;11.622;2022-07-29T15:57:23;6.93;;;3.47;;
9657;SDS011;4867;48.112;11.622;2022-07-29T15:59:50;4.20;;;3.45;;
9657;SDS011;4867;48.112;11.622;2022-07-29T16:02:17;3.77;;;3.37;;
9657;SDS011;4867;48.112;11.622;2022-07-29T16:04:44;5.97;;;3.67;;
9657;SDS011;4867;48.112;11.622;2022-07-29T16:07:11;3.90;;;3.50;;
9657;SDS011;4867;48.112;11.622;2022-07-29T16:09:39;4.97;;;3.37;;
9657;SDS011;4867;48.112;11.622;2022-07-29T16:12:06;3.80;;;3.40;;
9657;SDS011;4867;48.112;11.622;2022-07-29T16:14:40;3.93;;;3.40;;
9657;SDS011;4867;48.112;11.622;2022-07-29T16:17:08;5.47;;;3.40;;
9657;SDS011;4867;48.112;11.622;2022-07-29T16:19:39;5.50;;;3.90;;
9657;SDS011;4867;48.112;11.622;2022-07-29T16:22:08;4.50;;;3.60;;
9657;SDS011;4867;48.112;11.622;2022-07-29T16:24:35;3.97;;;3.60;;
9657;SDS011;4867;48.112;11.622;2022-07-29T16:27:02;4.00;;;3.60;;
9657;SDS011;4867;48.112;11.622;2022-07-29T16:29:29;5.60;;;4.23;;
9657;SDS011;4867;48.112;11.622;2022-07-29T16:31:56;4.00;;;3.60;;